Chiricana — 3EKU3 — position and weather

sailwx.info

Track history (hours):
 
Tides and Currents Weather Stations Pressure Air Temp Water Temp Dewpoint Dewpoint Depression Visibility Wind Speed Wind Dir Waves Ship Positions

Chiricana

Last reported at 2016-Sep-23 13:33 UTC. Time now 2016-Sep-25 10:40 UTC.
Position N 48°31' W 125°60'.

Length 300 m; draft 13.9 m.

Type: Ship (hazmat cat A). MMSI: 372829000.

Date/timePositionNaut miles runAvg speedWind from/ knotsBaromVisibWave heightAir tempDewpointWater temp
2016-Sep-23 13:33N 48°31' W 125°60'6817.0
2016-Sep-23 09:33N 48°24' W 124°18'4815.9
2016-Sep-23 06:34N 48°12' W 123°08'3316.3
2016-Sep-23 04:33N 47°54' W 122°28'1616.1
2016-Sep-23 03:33N 47°38' W 122°27'1616.0
2016-Sep-23 02:34N 47°22' W 122°22'6 6.3
2016-Sep-23 01:33N 47°16' W 122°24'1 0.5
2016-Sep-22 23:10N 47°15' W 122°23'12 0.5
2016-Sep-21 19:33N 47°28' W 122°25'4815.8
2016-Sep-21 16:33N 48°11' W 122°54'9012.9
2016-Sep-21 09:33N 48°16' W 125°08'1514.9
2016-Sep-21 08:33N 48°02' W 125°17'8614.3
2016-Sep-21 02:33N 46°37' W 125°24'40515.0
2016-Sep-19 23:34N 39°52' W 124°45'6715.4
2016-Sep-19 19:10N 38°51' W 124°08'1016.2
2016-Sep-19 18:32N 38°43' W 123°59'3216.1
2016-Sep-19 16:34N 38°20' W 123°32'2412.0
2016-Sep-19 14:33N 38°02' W 123°12'10 9.5
2016-Sep-19 13:33N 37°56' W 123°03'10 9.8
2016-Sep-19 12:33N 37°51' W 122°52'1110.8
2016-Sep-19 11:33N 37°46' W 122°40'15 7.6
2016-Sep-19 09:31N 37°48' W 122°20'0 0.0
2016-Sep-19 07:31N 37°48' W 122°20'0 0.0
2016-Sep-19 06:31N 37°48' W 122°20'0 0.0
2016-Sep-19 03:31N 37°48' W 122°20'0 0.0
2016-Sep-19 02:31N 37°48' W 122°20'0 0.0
2016-Sep-19 00:31N 37°48' W 122°20'0 0.0
2016-Sep-18 19:31N 37°48' W 122°20'0 0.0
2016-Sep-18 15:31N 37°48' W 122°20'0 0.0
2016-Sep-18 14:31N 37°48' W 122°20'21 5.4
2016-Sep-18 10:34N 37°34' W 122°40'10 9.9
2016-Sep-18 09:34N 37°24' W 122°40'9313.3
2016-Sep-18 02:34N 35°55' W 122°10'1514.6
2016-Sep-18 01:34N 35°43' W 121°59'1616.1
2016-Sep-18 00:34N 35°30' W 121°47'3216.1
2016-Sep-17 22:33N 35°04' W 121°24'1616.1
2016-Sep-17 21:33N 34°50' W 121°13'1616.2
2016-Sep-17 20:33N 34°37' W 121°01'2517.1
2016-Sep-17 19:07N 34°23' W 120°37'9517.0
2016-Sep-17 13:34N 33°52' W 118°49'1212.1
2016-Sep-17 12:34N 33°46' W 118°37'18 9.1
2016-Sep-17 10:33N 33°43' W 118°15'2 2.2
2016-Sep-17 09:33N 33°45' W 118°16'0 0.0
2016-Sep-17 08:29N 33°45' W 118°16'0 0.0
2016-Sep-17 07:32N 33°45' W 118°16'0 0.0
2016-Sep-17 05:32N 33°45' W 118°16'0 0.0
2016-Sep-17 04:32N 33°45' W 118°16'0 0.0
2016-Sep-17 00:33N 33°45' W 118°16'0 0.0
2016-Sep-16 17:32N 33°45' W 118°16'0 0.0
2016-Sep-16 15:29N 33°45' W 118°16'0 0.0
2016-Sep-16 12:33N 33°45' W 118°16'0 0.0
2016-Sep-16 09:33N 33°45' W 118°16'0 0.0
2016-Sep-16 07:29N 33°45' W 118°16'0 0.0
2016-Sep-16 03:32N 33°45' W 118°16'0 0.0
2016-Sep-16 02:32N 33°45' W 118°16'0 0.0
2016-Sep-16 00:33N 33°45' W 118°16'0 0.0
2016-Sep-15 22:32N 33°45' W 118°16'0 0.0
2016-Sep-15 21:33N 33°45' W 118°16'0 0.0
2016-Sep-15 20:32N 33°45' W 118°16'0 0.0
2016-Sep-15 18:32N 33°45' W 118°16'0 0.0
2016-Sep-15 12:32N 33°45' W 118°16'0 0.0
2016-Sep-15 11:11N 33°45' W 118°16'0 0.0
2016-Sep-15 04:33N 33°45' W 118°16'0 0.0
2016-Sep-15 03:32N 33°45' W 118°16'0 0.0
2016-Sep-15 01:32N 33°45' W 118°16'0 0.0
2016-Sep-14 22:30N 33°45' W 118°16'0 0.0
2016-Sep-14 21:27N 33°45' W 118°16'0 0.0
2016-Sep-14 17:33N 33°45' W 118°16'0 0.0
2016-Sep-14 16:32N 33°45' W 118°16'0 0.0
2016-Sep-14 13:33N 33°45' W 118°16'0 0.0
2016-Sep-14 12:33N 33°45' W 118°16'7 3.3
2016-Sep-14 10:30N 33°38' W 118°14'1010.1
2016-Sep-14 09:32N 33°37' W 118°26'2310.2
2016-Sep-14 07:17N 33°38' W 118°53'810.2
2016-Sep-14 06:32N 33°38' W 119°03'  
Track history (hours):
 
Tides and Currents Weather Stations Pressure Air Temp Water Temp Dewpoint Dewpoint Depression Visibility Wind Speed Wind Dir Waves Ship Positions

Chiricana

Last reported at 2016-Sep-23 13:33 UTC. Time now 2016-Sep-25 10:40 UTC.
Position N 48°31' W 125°60'.

Length 300 m; draft 13.9 m.

Type: Ship (hazmat cat A). MMSI: 372829000.

Date/timePositionNaut miles runAvg speedWind from/ knotsBaromVisibWave heightAir tempDewpointWater temp
2016-Sep-23 13:33N 48°31' W 125°60'6817.0
2016-Sep-23 09:33N 48°24' W 124°18'4815.9
2016-Sep-23 06:34N 48°12' W 123°08'3316.3
2016-Sep-23 04:33N 47°54' W 122°28'1616.1
2016-Sep-23 03:33N 47°38' W 122°27'1616.0
2016-Sep-23 02:34N 47°22' W 122°22'6 6.3
2016-Sep-23 01:33N 47°16' W 122°24'1 0.5
2016-Sep-22 23:10N 47°15' W 122°23'12 0.5
2016-Sep-21 19:33N 47°28' W 122°25'4815.8
2016-Sep-21 16:33N 48°11' W 122°54'9012.9
2016-Sep-21 09:33N 48°16' W 125°08'1514.9
2016-Sep-21 08:33N 48°02' W 125°17'8614.3
2016-Sep-21 02:33N 46°37' W 125°24'40515.0
2016-Sep-19 23:34N 39°52' W 124°45'6715.4
2016-Sep-19 19:10N 38°51' W 124°08'1016.2
2016-Sep-19 18:32N 38°43' W 123°59'3216.1
2016-Sep-19 16:34N 38°20' W 123°32'2412.0
2016-Sep-19 14:33N 38°02' W 123°12'10 9.5
2016-Sep-19 13:33N 37°56' W 123°03'10 9.8
2016-Sep-19 12:33N 37°51' W 122°52'1110.8
2016-Sep-19 11:33N 37°46' W 122°40'15 7.6
2016-Sep-19 09:31N 37°48' W 122°20'0 0.0
2016-Sep-19 07:31N 37°48' W 122°20'0 0.0
2016-Sep-19 06:31N 37°48' W 122°20'0 0.0
2016-Sep-19 03:31N 37°48' W 122°20'0 0.0
2016-Sep-19 02:31N 37°48' W 122°20'0 0.0
2016-Sep-19 00:31N 37°48' W 122°20'0 0.0
2016-Sep-18 19:31N 37°48' W 122°20'0 0.0
2016-Sep-18 15:31N 37°48' W 122°20'0 0.0
2016-Sep-18 14:31N 37°48' W 122°20'21 5.4
2016-Sep-18 10:34N 37°34' W 122°40'10 9.9
2016-Sep-18 09:34N 37°24' W 122°40'9313.3
2016-Sep-18 02:34N 35°55' W 122°10'1514.6
2016-Sep-18 01:34N 35°43' W 121°59'1616.1
2016-Sep-18 00:34N 35°30' W 121°47'3216.1
2016-Sep-17 22:33N 35°04' W 121°24'1616.1
2016-Sep-17 21:33N 34°50' W 121°13'1616.2
2016-Sep-17 20:33N 34°37' W 121°01'2517.1
2016-Sep-17 19:07N 34°23' W 120°37'9517.0
2016-Sep-17 13:34N 33°52' W 118°49'1212.1
2016-Sep-17 12:34N 33°46' W 118°37'18 9.1
2016-Sep-17 10:33N 33°43' W 118°15'2 2.2
2016-Sep-17 09:33N 33°45' W 118°16'0 0.0
2016-Sep-17 08:29N 33°45' W 118°16'0 0.0
2016-Sep-17 07:32N 33°45' W 118°16'0 0.0
2016-Sep-17 05:32N 33°45' W 118°16'0 0.0
2016-Sep-17 04:32N 33°45' W 118°16'0 0.0
2016-Sep-17 00:33N 33°45' W 118°16'0 0.0
2016-Sep-16 17:32N 33°45' W 118°16'0 0.0
2016-Sep-16 15:29N 33°45' W 118°16'0 0.0
2016-Sep-16 12:33N 33°45' W 118°16'0 0.0
2016-Sep-16 09:33N 33°45' W 118°16'0 0.0
2016-Sep-16 07:29N 33°45' W 118°16'0 0.0
2016-Sep-16 03:32N 33°45' W 118°16'0 0.0
2016-Sep-16 02:32N 33°45' W 118°16'0 0.0
2016-Sep-16 00:33N 33°45' W 118°16'0 0.0
2016-Sep-15 22:32N 33°45' W 118°16'0 0.0
2016-Sep-15 21:33N 33°45' W 118°16'0 0.0
2016-Sep-15 20:32N 33°45' W 118°16'0 0.0
2016-Sep-15 18:32N 33°45' W 118°16'0 0.0
2016-Sep-15 12:32N 33°45' W 118°16'0 0.0
2016-Sep-15 11:11N 33°45' W 118°16'0 0.0
2016-Sep-15 04:33N 33°45' W 118°16'0 0.0
2016-Sep-15 03:32N 33°45' W 118°16'0 0.0
2016-Sep-15 01:32N 33°45' W 118°16'0 0.0
2016-Sep-14 22:30N 33°45' W 118°16'0 0.0
2016-Sep-14 21:27N 33°45' W 118°16'0 0.0
2016-Sep-14 17:33N 33°45' W 118°16'0 0.0
2016-Sep-14 16:32N 33°45' W 118°16'0 0.0
2016-Sep-14 13:33N 33°45' W 118°16'0 0.0
2016-Sep-14 12:33N 33°45' W 118°16'7 3.3
2016-Sep-14 10:30N 33°38' W 118°14'1010.1
2016-Sep-14 09:32N 33°37' W 118°26'2310.2
2016-Sep-14 07:17N 33°38' W 118°53'810.2
2016-Sep-14 06:32N 33°38' W 119°03'  

Dump ship's entire track history